Time;durP1;ratioP1;P1;durP2;ratioP2;P2;SDS_P1;SDS_P2;PMS_P1;PMS_P2;Temp;Humidity;BMP_temperature;BMP_pressure;BME280_temperature;BME280_humidity;BME280_pressure;Samples;Min_cycle;Max_cycle;Signal;HPM_P1;HPM_P2
2021/05/21 00:02:13;;;;;;;3.20;0.90;;;14.20;69.50;;;;;;4974630;28;20030;-76
2021/05/21 00:04:38;;;;;;;4.68;1.05;;;14.20;69.00;;;;;;4978369;28;20082;-78
2021/05/21 00:07:04;;;;;;;4.57;1.67;;;14.30;68.70;;;;;;4997394;28;20058;-78
2021/05/21 00:09:29;;;;;;;6.00;1.23;;;14.20;70.90;;;;;;4980346;28;20417;-77
2021/05/21 00:11:55;;;;;;;3.70;1.33;;;14.20;70.00;;;;;;4980322;28;20025;-78
2021/05/21 00:14:21;;;;;;;5.43;1.00;;;14.30;70.70;;;;;;4980229;28;20470;-77
2021/05/21 00:16:47;;;;;;;4.13;1.58;;;14.20;69.40;;;;;;4980305;28;20034;-77
2021/05/21 00:19:13;;;;;;;5.40;1.02;;;14.20;70.10;;;;;;4980802;28;20034;-76
2021/05/21 00:21:38;;;;;;;5.20;1.42;;;14.20;69.80;;;;;;4980633;28;20030;-77
2021/05/21 00:24:04;;;;;;;4.47;1.13;;;14.20;69.40;;;;;;4980648;28;20023;-76
2021/05/21 00:26:30;;;;;;;5.30;1.10;;;14.20;69.10;;;;;;4998302;28;20496;-76
2021/05/21 00:28:56;;;;;;;3.58;1.20;;;14.30;70.90;;;;;;4980643;28;20018;-77
2021/05/21 00:31:22;;;;;;;2.92;0.90;;;14.20;71.10;;;;;;4989000;28;20016;-76
2021/05/21 00:33:49;;;;;;;2.88;0.80;;;14.30;70.50;;;;;;5010188;28;20054;-76
2021/05/21 00:36:16;;;;;;;1.75;0.70;;;14.20;69.50;;;;;;4990959;28;20014;-76
2021/05/21 00:38:42;;;;;;;4.18;1.35;;;14.20;70.00;;;;;;4992746;28;20081;-77
2021/05/21 00:41:08;;;;;;;3.90;1.00;;;14.20;72.10;;;;;;4983216;28;20030;-77
2021/05/21 00:43:33;;;;;;;3.67;1.10;;;14.30;70.50;;;;;;4980147;28;20158;-77
2021/05/21 00:46:00;;;;;;;4.60;1.30;;;14.20;71.20;;;;;;4979609;28;20018;-77
2021/05/21 00:48:26;;;;;;;3.28;0.88;;;14.30;70.90;;;;;;4979657;28;20030;-77
2021/05/21 00:50:52;;;;;;;4.22;0.82;;;14.20;68.90;;;;;;4979236;28;20026;-77
2021/05/21 00:53:20;;;;;;;3.13;0.90;;;14.20;69.90;;;;;;4996957;28;20030;-77
2021/05/21 00:55:45;;;;;;;4.95;1.40;;;14.20;69.10;;;;;;4980795;28;20462;-76
2021/05/21 00:58:12;;;;;;;2.25;0.80;;;14.20;70.20;;;;;;4999611;28;20077;-77
2021/05/21 01:00:38;;;;;;;5.93;1.40;;;14.20;71.00;;;;;;5015475;28;20049;-76
2021/05/21 01:03:03;;;;;;;2.30;0.80;;;14.20;70.00;;;;;;4989346;28;20018;-76
2021/05/21 01:05:29;;;;;;;6.90;1.08;;;14.20;70.20;;;;;;4984428;28;20050;-78
2021/05/21 01:07:54;;;;;;;2.65;0.80;;;14.20;69.80;;;;;;4980002;28;20531;-77
2021/05/21 01:10:20;;;;;;;3.13;1.10;;;14.20;70.60;;;;;;4997341;28;20035;-78
2021/05/21 01:12:46;;;;;;;5.15;1.10;;;14.20;69.70;;;;;;4996255;28;20105;-77
2021/05/21 01:15:12;;;;;;;2.67;1.13;;;14.20;70.20;;;;;;4979634;28;20085;-78
2021/05/21 01:17:38;;;;;;;2.88;1.05;;;14.20;70.40;;;;;;4979367;28;20018;-76
2021/05/21 01:20:08;;;;;;;2.72;0.90;;;14.20;70.40;;;;;;4979160;28;20038;-77
2021/05/21 01:22:34;;;;;;;4.63;1.65;;;14.20;70.70;;;;;;4979087;28;20030;-77
2021/05/21 01:25:00;;;;;;;3.38;0.98;;;14.20;69.70;;;;;;4996408;28;20030;-76
2021/05/21 01:27:26;;;;;;;3.53;1.13;;;14.20;70.90;;;;;;4996845;28;20451;-76
2021/05/21 01:29:52;;;;;;;3.28;0.90;;;14.20;70.60;;;;;;4979171;28;20030;-77
2021/05/21 01:32:17;;;;;;;2.45;1.02;;;14.30;70.10;;;;;;4978750;28;20026;-76
2021/05/21 01:34:43;;;;;;;3.63;1.48;;;14.20;69.40;;;;;;4978886;28;20081;-76
2021/05/21 01:37:18;;;;;;;4.70;1.30;;;14.30;70.70;;;;;;4978527;28;20089;-77
2021/05/21 01:39:46;;;;;;;4.60;1.15;;;14.20;70.50;;;;;;4978628;28;20061;-77
2021/05/21 01:42:14;;;;;;;2.78;0.90;;;14.20;71.20;;;;;;4978538;28;20487;-77
2021/05/21 01:44:40;;;;;;;4.20;1.08;;;14.20;69.90;;;;;;4979028;28;20022;-77
2021/05/21 01:47:07;;;;;;;4.25;1.10;;;14.20;70.40;;;;;;4996259;28;20027;-77
2021/05/21 01:49:33;;;;;;;4.53;1.45;;;14.20;70.30;;;;;;4978904;28;20135;-77
2021/05/21 01:52:00;;;;;;;4.07;0.80;;;14.20;70.70;;;;;;4982507;28;20459;-76
2021/05/21 01:54:28;;;;;;;5.38;1.25;;;14.20;70.80;;;;;;4997839;28;20030;-76
2021/05/21 01:56:55;;;;;;;2.58;1.35;;;14.20;71.10;;;;;;4979255;28;20113;-77
2021/05/21 01:59:21;;;;;;;2.22;0.95;;;14.20;71.20;;;;;;4978524;28;20034;-76
2021/05/21 02:01:47;;;;;;;3.08;1.10;;;14.10;71.20;;;;;;4978702;28;20025;-77
2021/05/21 02:04:14;;;;;;;5.03;1.00;;;14.10;71.20;;;;;;4978570;28;20352;-77
2021/05/21 02:06:39;;;;;;;5.47;1.52;;;14.10;71.50;;;;;;4978253;28;20055;-77
2021/05/21 02:09:10;;;;;;;2.00;0.90;;;14.10;72.60;;;;;;4995440;28;20023;-78
2021/05/21 02:11:37;;;;;;;4.28;1.63;;;14.10;73.20;;;;;;4978409;28;20026;-78
2021/05/21 02:14:04;;;;;;;3.03;1.25;;;14.00;75.30;;;;;;4978088;28;20023;-78
2021/05/21 02:16:30;;;;;;;5.00;1.55;;;13.80;77.30;;;;;;4978032;28;20053;-77
2021/05/21 02:18:55;;;;;;;6.72;2.40;;;13.60;80.70;;;;;;4977672;28;20057;-77
2021/05/21 02:21:22;;;;;;;8.45;2.20;;;13.50;81.60;;;;;;4978027;28;20065;-77
2021/05/21 02:23:48;;;;;;;7.75;2.25;;;13.30;81.20;;;;;;4978362;28;20056;-77
2021/05/21 02:26:13;;;;;;;9.65;2.17;;;13.10;82.30;;;;;;4997105;28;20035;-77
2021/05/21 02:28:39;;;;;;;16.30;3.30;;;13.00;82.50;;;;;;4980792;28;20030;-76
2021/05/21 02:31:05;;;;;;;11.55;2.65;;;12.90;83.90;;;;;;4993065;28;20082;-76
2021/05/21 02:33:30;;;;;;;12.07;3.08;;;12.80;84.20;;;;;;4989582;28;20030;-75
2021/05/21 02:35:56;;;;;;;14.80;2.63;;;12.80;83.20;;;;;;4996920;28;20053;-77
2021/05/21 02:38:21;;;;;;;17.92;2.92;;;12.70;83.50;;;;;;4990846;28;20041;-76
2021/05/21 02:40:47;;;;;;;15.52;3.05;;;12.60;83.80;;;;;;4982738;28;20474;-77
2021/05/21 02:43:14;;;;;;;18.23;3.20;;;12.50;82.70;;;;;;4977096;28;20022;-77
2021/05/21 02:45:40;;;;;;;20.17;3.65;;;12.50;83.00;;;;;;4994407;28;20486;-77
2021/05/21 02:48:15;;;;;;;17.48;2.75;;;12.40;83.30;;;;;;4976695;28;20022;-78
2021/05/21 02:50:42;;;;;;;21.38;3.45;;;12.30;83.50;;;;;;4977350;28;20490;-77
2021/05/21 02:53:09;;;;;;;19.95;4.47;;;12.20;83.80;;;;;;4990681;28;20010;-77
2021/05/21 02:55:34;;;;;;;24.10;4.18;;;12.10;84.80;;;;;;5010696;28;20036;-76
2021/05/21 02:58:03;;;;;;;17.10;3.05;;;12.00;85.10;;;;;;4978821;28;20403;-76
2021/05/21 03:00:30;;;;;;;16.00;3.25;;;12.00;85.60;;;;;;4976989;28;20112;-75
2021/05/21 03:02:56;;;;;;;20.65;3.08;;;11.90;86.30;;;;;;4976971;28;20019;-76
2021/05/21 03:05:27;;;;;;;20.33;3.67;;;11.90;86.40;;;;;;4974299;28;20081;-77
2021/05/21 03:07:57;;;;;;;17.73;4.15;;;11.80;87.00;;;;;;4973814;28;20451;-78
2021/05/21 03:10:24;;;;;;;;;;;11.80;87.70;;;;;;4974055;28;20530;-77
2021/05/21 03:12:50;;;;;;;19.73;3.80;;;11.70;87.40;;;;;;4973332;28;19953;-78
2021/05/21 03:15:16;;;;;;;16.85;2.85;;;11.60;87.30;;;;;;4973505;28;20023;-77
2021/05/21 03:17:47;;;;;;;18.73;3.05;;;11.60;88.10;;;;;;4973467;28;20529;-77
2021/05/21 03:20:24;;;;;;;20.58;3.83;;;11.50;88.00;;;;;;4974081;28;20022;-77
2021/05/21 03:22:50;;;;;;;17.08;3.70;;;11.40;88.00;;;;;;4974408;28;20031;-75
2021/05/21 03:25:18;;;;;;;20.55;3.03;;;11.40;88.30;;;;;;4974186;28;20459;-77
2021/05/21 03:27:54;;;;;;;;;;;;;;;;;;;;;
2021/05/21 03:30:41;;;;;;;19.88;3.38;;;11.30;89.10;;;;;;4975142;28;20031;-77
2021/05/21 03:33:08;;;;;;;19.17;2.95;;;11.30;88.70;;;;;;4973320;28;20204;-77
2021/05/21 03:35:35;;;;;;;12.73;3.33;;;11.30;89.00;;;;;;4973994;28;20085;-77
2021/05/21 03:38:05;;;;;;;23.85;3.63;;;11.30;88.90;;;;;;4972638;28;20023;-76
2021/05/21 03:40:35;;;;;;;17.38;3.55;;;11.30;89.30;;;;;;4973632;28;20137;-76
2021/05/21 03:43:01;;;;;;;18.52;3.42;;;11.30;88.80;;;;;;4974652;28;20471;-76
2021/05/21 03:45:27;;;;;;;20.80;3.78;;;11.30;89.20;;;;;;4973201;28;20063;-76
2021/05/21 03:48:02;;;;;;;17.02;2.72;;;11.30;88.70;;;;;;4972925;28;20380;-76
2021/05/21 03:50:34;;;;;;;19.75;3.50;;;11.30;88.80;;;;;;4973406;28;20030;-76
2021/05/21 03:53:12;;;;;;;21.67;3.17;;;11.30;88.30;;;;;;4973280;28;20099;-76
2021/05/21 03:55:38;;;;;;;16.40;4.22;;;11.30;88.70;;;;;;4973611;28;20057;-77
2021/05/21 03:58:15;;;;;;;14.30;3.20;;;11.30;89.20;;;;;;4984450;28;20031;-76
2021/05/21 04:00:40;;;;;;;18.67;3.78;;;11.30;88.90;;;;;;4986106;28;20062;-77
2021/05/21 04:03:06;;;;;;;20.27;2.83;;;11.30;88.80;;;;;;4973710;28;20091;-76
2021/05/21 04:05:33;;;;;;;19.80;3.85;;;11.20;88.50;;;;;;4972649;28;20057;-77
2021/05/21 04:07:59;;;;;;;13.90;3.28;;;11.30;89.00;;;;;;4973070;28;20062;-77
2021/05/21 04:10:26;;;;;;;22.05;3.72;;;11.30;88.40;;;;;;4973185;28;20027;-77
2021/05/21 04:12:52;;;;;;;19.48;3.35;;;11.30;88.40;;;;;;4974016;28;20093;-77
2021/05/21 04:15:33;;;;;;;18.30;3.17;;;11.30;88.10;;;;;;4973759;28;20023;-77
2021/05/21 04:17:58;;;;;;;17.63;4.00;;;11.30;88.10;;;;;;4974691;28;20031;-77
2021/05/21 04:20:24;;;;;;;21.77;3.38;;;11.30;88.00;;;;;;4973674;28;20027;-76
2021/05/21 04:22:53;;;;;;;21.02;4.55;;;11.40;88.20;;;;;;4973346;28;20087;-78
2021/05/21 04:25:18;;;;;;;20.13;3.00;;;11.40;88.10;;;;;;4973953;28;20031;-77
2021/05/21 04:27:44;;;;;;;19.25;3.83;;;11.40;88.10;;;;;;4974113;28;20122;-76
2021/05/21 04:30:10;;;;;;;22.25;3.13;;;11.50;87.70;;;;;;4980662;28;20099;-77
2021/05/21 04:32:44;;;;;;;15.57;4.25;;;11.50;87.20;;;;;;4990663;28;20179;-76
2021/05/21 04:35:21;;;;;;;22.38;3.63;;;11.50;87.70;;;;;;4990400;28;20034;-76
2021/05/21 04:37:52;;;;;;;24.88;3.35;;;11.50;87.30;;;;;;4984158;28;20053;-76
2021/05/21 04:40:21;;;;;;;25.95;4.10;;;11.50;87.20;;;;;;4976275;28;20031;-76
2021/05/21 04:42:50;;;;;;;21.65;4.53;;;11.50;87.00;;;;;;4979953;28;20047;-75
2021/05/21 04:45:16;;;;;;;14.23;2.70;;;11.50;86.80;;;;;;4977351;28;20047;-76
2021/05/21 04:47:50;;;;;;;19.15;3.85;;;11.50;86.60;;;;;;4996115;28;20023;-77
2021/05/21 04:50:37;;;;;;;15.25;3.05;;;11.60;86.40;;;;;;4977610;28;20035;-76
2021/05/21 04:53:12;;;;;;;18.20;3.15;;;11.60;86.50;;;;;;4966979;28;20471;-77
2021/05/21 04:55:38;;;;;;;17.25;2.42;;;11.60;86.80;;;;;;4977076;28;20454;-76
2021/05/21 04:58:14;;;;;;;17.23;3.35;;;11.60;86.80;;;;;;4975761;28;20026;-77
2021/05/21 05:00:40;;;;;;;16.63;3.00;;;11.70;86.80;;;;;;4975961;28;20023;-76
2021/05/21 05:03:18;;;;;;;20.60;3.00;;;11.70;86.30;;;;;;4975998;28;20057;-77
2021/05/21 05:05:45;;;;;;;13.55;3.45;;;11.80;85.90;;;;;;4976717;28;20078;-76
2021/05/21 05:08:14;;;;;;;13.02;2.63;;;11.80;86.20;;;;;;4977879;28;20030;-77
2021/05/21 05:10:40;;;;;;;14.75;2.97;;;11.80;85.30;;;;;;4979129;28;20062;-77
2021/05/21 05:13:22;;;;;;;19.92;3.10;;;11.90;85.00;;;;;;4976640;28;20027;-75
2021/05/21 05:15:59;;;;;;;14.57;2.92;;;11.90;84.20;;;;;;4976134;28;20023;-75
2021/05/21 05:18:25;;;;;;;14.68;2.92;;;11.90;84.20;;;;;;4975546;28;20023;-76
2021/05/21 05:21:01;;;;;;;;;;;;;;;;;;;;;
2021/05/21 05:23:54;;;;;;;19.98;3.22;;;11.80;84.20;;;;;;4976791;28;20031;-77
2021/05/21 05:26:20;;;;;;;23.65;4.20;;;11.80;84.50;;;;;;4975566;28;20411;-76
2021/05/21 05:28:47;;;;;;;15.63;3.33;;;11.90;84.70;;;;;;4976011;28;20035;-76
2021/05/21 05:31:13;;;;;;;18.45;2.90;;;11.90;85.00;;;;;;4975381;28;20023;-76
2021/05/21 05:33:52;;;;;;;19.83;3.75;;;11.90;85.30;;;;;;4975246;28;20425;-76
2021/05/21 05:39:06;;;;;;;16.17;3.55;;;12.00;86.30;;;;;;4936022;29;20030;-75
2021/05/21 05:41:40;;;;;;;15.40;2.88;;;12.10;83.90;;;;;;4967789;28;20038;-75
2021/05/21 05:44:06;;;;;;;16.35;3.78;;;12.20;82.80;;;;;;4976558;28;20030;-76
2021/05/21 05:46:32;;;;;;;15.90;2.75;;;12.30;80.60;;;;;;4975525;28;20532;-76
2021/05/21 05:48:57;;;;;;;16.48;3.22;;;12.30;80.10;;;;;;4975411;28;20046;-77
2021/05/21 05:51:23;;;;;;;18.92;4.55;;;12.40;79.40;;;;;;4975451;28;20481;-77
2021/05/21 05:53:54;;;;;;;16.00;3.10;;;12.50;78.30;;;;;;4975696;28;20023;-77
2021/05/21 05:56:20;;;;;;;14.70;3.10;;;12.60;78.40;;;;;;4973455;28;20015;-78
2021/05/21 05:58:59;;;;;;;13.35;2.60;;;12.60;77.30;;;;;;4983253;28;20542;-75
2021/05/21 06:04:23;;;;;;;17.42;3.35;;;12.70;76.40;;;;;;4970091;29;20082;-76
2021/05/21 06:06:49;;;;;;;16.05;4.40;;;12.80;75.20;;;;;;4959535;28;20057;-78
2021/05/21 06:09:15;;;;;;;11.40;2.67;;;12.90;74.70;;;;;;4955842;29;20032;-77
2021/05/21 06:11:41;;;;;;;12.43;2.33;;;12.90;74.40;;;;;;4957041;28;20179;-76
2021/05/21 06:14:30;;;;;;;16.58;3.80;;;13.00;74.10;;;;;;4955774;28;20074;-76
2021/05/21 06:16:55;;;;;;;17.60;3.45;;;13.10;72.60;;;;;;4955384;29;20085;-76
2021/05/21 06:19:21;;;;;;;16.45;3.33;;;13.20;71.50;;;;;;4956706;28;20027;-76
2021/05/21 06:21:47;;;;;;;16.38;3.33;;;13.30;71.30;;;;;;4955556;29;20019;-76
2021/05/21 06:24:17;;;;;;;15.02;2.50;;;13.30;68.00;;;;;;4955298;28;20388;-77
2021/05/21 06:27:36;;;;;;;18.83;3.75;;;13.40;69.70;;;;;;4956801;28;20020;-75
2021/05/21 06:30:02;;;;;;;20.45;3.00;;;13.40;67.50;;;;;;4946118;29;20054;-76
2021/05/21 06:32:28;;;;;;;16.05;3.55;;;13.50;67.40;;;;;;4963017;29;20030;-76
2021/05/21 06:34:53;;;;;;;22.70;3.45;;;13.60;65.20;;;;;;4989762;28;20023;-77
2021/05/21 06:37:38;;;;;;;17.83;3.40;;;13.60;66.60;;;;;;4966200;28;20070;-77
2021/05/21 06:40:05;;;;;;;19.70;2.78;;;13.70;67.40;;;;;;4968975;28;20035;-75
2021/05/21 06:42:34;;;;;;;15.93;3.47;;;13.80;65.00;;;;;;4962190;28;20027;-77
2021/05/21 06:45:19;;;;;;;18.98;3.08;;;13.90;64.20;;;;;;4956323;29;20027;-76
2021/05/21 06:47:45;;;;;;;13.75;2.75;;;13.90;62.80;;;;;;4957653;29;20035;-77
2021/05/21 06:50:11;;;;;;;22.50;3.90;;;14.00;64.20;;;;;;4955341;28;20482;-77
2021/05/21 06:52:37;;;;;;;13.02;2.50;;;14.00;64.40;;;;;;4954914;28;20024;-76
2021/05/21 06:55:32;;;;;;;14.45;3.08;;;14.20;64.80;;;;;;4954853;28;20089;-77
2021/05/21 06:57:58;;;;;;;16.70;3.45;;;14.20;63.10;;;;;;4954141;29;20497;-77
2021/05/21 07:03:36;;;;;;;13.80;2.28;;;14.30;65.40;;;;;;4897398;29;20057;-77
2021/05/21 07:06:11;;;;;;;19.20;3.95;;;14.30;62.00;;;;;;4888300;28;20053;-76
2021/05/21 07:08:53;;;;;;;16.88;4.82;;;14.30;61.30;;;;;;4955954;29;20050;-77
2021/05/21 07:11:37;;;;;;;16.63;3.88;;;14.40;61.10;;;;;;4955107;28;20103;-77
2021/05/21 07:14:15;;;;;;;14.20;3.50;;;14.50;62.30;;;;;;4955815;29;20035;-77
2021/05/21 07:16:41;;;;;;;14.98;3.13;;;14.60;62.50;;;;;;4954833;29;20228;-75
2021/05/21 07:19:48;;;;;;;14.18;4.20;;;14.50;61.20;;;;;;4958011;28;20091;-76
2021/05/21 07:22:14;;;;;;;15.13;3.22;;;14.60;64.50;;;;;;4953537;29;20023;-76
2021/05/21 07:25:00;;;;;;;13.43;2.92;;;14.80;61.70;;;;;;4954278;29;20029;-77
2021/05/21 07:27:39;;;;;;;19.98;3.03;;;14.70;59.90;;;;;;4953402;29;20035;-75
2021/05/21 07:36:43;;;;;;;13.52;3.17;;;14.60;64.50;;;;;;4896478;29;20547;-77
2021/05/21 07:40:11;;;;;;;15.27;2.80;;;14.80;63.10;;;;;;4877019;29;20041;-76
2021/05/21 07:48:57;;;;;;;12.30;3.95;;;14.90;61.80;;;;;;4823070;29;20053;-76
2021/05/21 07:51:31;;;;;;;18.83;3.63;;;14.80;61.10;;;;;;4822883;29;20129;-76
2021/05/21 07:53:56;;;;;;;15.82;3.38;;;14.90;61.30;;;;;;4852630;29;20042;-77
2021/05/21 07:56:45;;;;;;;18.33;3.95;;;14.90;63.30;;;;;;4859517;29;20042;-76
2021/05/21 08:02:07;;;;;;;16.75;3.65;;;14.60;64.70;;;;;;4840333;29;20038;-76
2021/05/21 08:04:51;;;;;;;14.77;3.47;;;14.40;66.30;;;;;;4825882;29;20384;-78
2021/05/21 08:07:54;;;;;;;11.98;2.17;;;14.10;70.40;;;;;;4860110;29;20033;-79
2021/05/21 08:10:43;;;;;;;8.57;1.60;;;13.40;72.10;;;;;;4873870;29;20109;-77
2021/05/21 08:13:09;;;;;;;11.88;2.17;;;12.70;74.30;;;;;;4862190;29;20097;-78
2021/05/21 08:15:45;;;;;;;7.97;1.92;;;12.40;76.70;;;;;;4865964;29;20040;-78
2021/05/21 08:18:21;;;;;;;9.93;1.40;;;12.30;76.30;;;;;;4920841;29;20109;-77
2021/05/21 08:23:50;;;;;;;8.95;1.50;;;12.40;77.10;;;;;;4936785;29;20120;-79
2021/05/21 08:26:25;;;;;;;6.85;1.65;;;12.60;77.60;;;;;;4941913;29;20473;-78
2021/05/21 08:28:54;;;;;;;7.55;1.10;;;12.60;76.70;;;;;;4958494;29;20027;-78
2021/05/21 08:31:21;;;;;;;4.87;1.20;;;12.70;76.30;;;;;;4954153;29;20038;-78
2021/05/21 08:33:48;;;;;;;11.23;1.95;;;12.80;76.10;;;;;;4971896;28;20107;-79
2021/05/21 08:36:14;;;;;;;8.13;2.03;;;13.00;76.10;;;;;;4951713;29;20055;-78
2021/05/21 08:41:28;;;;;;;7.65;2.75;;;13.60;76.00;;;;;;4939147;29;20122;-77
2021/05/21 08:47:11;;;;;;;12.73;2.95;;;14.20;75.20;;;;;;4920410;29;20123;-77
2021/05/21 08:49:38;;;;;;;13.27;2.40;;;14.40;74.60;;;;;;4940135;29;20027;-77
2021/05/21 08:52:04;;;;;;;12.57;2.55;;;14.70;72.10;;;;;;4940794;29;20039;-77
2021/05/21 08:54:53;;;;;;;16.73;3.05;;;14.90;72.20;;;;;;4937836;29;20530;-77
2021/05/21 08:57:42;;;;;;;15.00;2.47;;;15.10;69.10;;;;;;4939434;28;20036;-77
2021/05/21 09:00:08;;;;;;;15.82;2.95;;;15.30;69.40;;;;;;4937187;29;20051;-78
2021/05/21 09:02:39;;;;;;;12.23;3.45;;;15.40;67.30;;;;;;4937556;29;20066;-77
2021/05/21 09:05:23;;;;;;;12.63;2.40;;;15.50;68.60;;;;;;4942445;29;20043;-78
2021/05/21 09:10:35;;;;;;;10.85;2.67;;;15.30;64.30;;;;;;4958315;29;20518;-78
2021/05/21 09:13:43;;;;;;;16.10;2.90;;;15.10;65.00;;;;;;4958957;28;20051;-77
2021/05/21 09:17:01;;;;;;;9.80;2.20;;;15.00;63.90;;;;;;4957231;29;20484;-77
2021/05/21 09:19:28;;;;;;;9.52;2.83;;;15.00;64.80;;;;;;4882561;29;20041;-77
2021/05/21 09:22:12;;;;;;;9.38;2.85;;;14.90;65.30;;;;;;4882493;29;20047;-76
2021/05/21 09:24:45;;;;;;;15.82;2.67;;;14.60;67.90;;;;;;4882618;29;20036;-79
2021/05/21 09:27:16;;;;;;;9.82;2.47;;;14.30;69.30;;;;;;4882688;29;20020;-79
2021/05/21 09:30:29;;;;;;;16.00;3.40;;;13.90;72.20;;;;;;4882481;29;20468;-77
2021/05/21 09:33:05;;;;;;;11.65;2.00;;;13.60;71.70;;;;;;4850304;29;20125;-77
2021/05/21 09:35:31;;;;;;;10.75;1.90;;;13.60;72.50;;;;;;4897114;29;20036;-78
2021/05/21 09:38:18;;;;;;;8.32;2.22;;;13.60;73.30;;;;;;4944558;29;20062;-79
2021/05/21 09:43:47;;;;;;;11.85;2.08;;;13.60;74.90;;;;;;4937452;29;20032;-77
2021/05/21 09:47:09;;;;;;;10.98;2.33;;;13.90;74.70;;;;;;4954626;29;20039;-75
2021/05/21 09:49:38;;;;;;;8.95;2.58;;;14.10;72.40;;;;;;4954140;29;20043;-78
2021/05/21 09:52:27;;;;;;;11.45;2.50;;;14.60;71.40;;;;;;4955173;29;20472;-78
2021/05/21 09:54:55;;;;;;;12.95;2.75;;;14.90;69.60;;;;;;4915896;29;20412;-78
2021/05/21 10:00:36;;;;;;;10.63;1.85;;;15.20;67.90;;;;;;4916624;29;20128;-78
2021/05/21 10:03:02;;;;;;;13.75;2.90;;;15.20;67.40;;;;;;4901067;29;20032;-78
2021/05/21 10:05:29;;;;;;;12.80;2.25;;;15.30;66.00;;;;;;4900602;29;20115;-77
2021/05/21 10:07:58;;;;;;;13.45;3.10;;;15.40;67.30;;;;;;4901108;29;20066;-78
2021/05/21 10:10:59;;;;;;;16.25;2.85;;;15.40;65.40;;;;;;4903442;29;20024;-78
2021/05/21 10:13:44;;;;;;;14.82;2.67;;;15.30;67.10;;;;;;4926948;29;20055;-78
2021/05/21 10:22:22;;;;;;;12.10;3.22;;;15.60;64.50;;;;;;4960203;29;20038;-79
2021/05/21 10:25:46;;;;;;;13.57;3.20;;;15.90;63.60;;;;;;4970055;28;20034;-78
2021/05/21 10:28:36;;;;;;;14.80;2.58;;;16.20;62.60;;;;;;4961447;28;20031;-77
2021/05/21 10:31:03;;;;;;;13.98;3.53;;;16.70;62.90;;;;;;4955352;29;20035;-78
2021/05/21 10:33:35;;;;;;;14.77;2.60;;;16.90;60.40;;;;;;4960136;28;20035;-76
2021/05/21 10:36:36;;;;;;;15.00;3.15;;;16.80;58.50;;;;;;4952106;29;20122;-78
2021/05/21 10:39:36;;;;;;;9.55;2.15;;;16.50;59.00;;;;;;4916395;29;20119;-78
2021/05/21 10:46:06;;;;;;;;;;;;;;;;;;;;;
2021/05/21 10:48:33;;;;;;;7.78;1.70;;;16.60;58.50;;;;;;4957723;29;20069;-78
2021/05/21 10:51:18;;;;;;;15.82;3.95;;;16.80;60.00;;;;;;4951156;29;20035;-78
2021/05/21 10:56:43;;;;;;;9.65;2.17;;;16.80;58.60;;;;;;4971542;29;20179;-77
2021/05/21 10:59:09;;;;;;;18.90;2.28;;;17.00;56.90;;;;;;4940814;29;20484;-77
2021/05/21 11:05:15;;;;;;;11.15;3.00;;;16.40;58.20;;;;;;4915774;29;20428;-77
2021/05/21 11:07:44;;;;;;;10.77;2.83;;;16.40;60.00;;;;;;4858907;29;20053;-76
2021/05/21 11:14:04;;;;;;;12.60;3.42;;;16.50;61.00;;;;;;4894128;29;20036;-77
2021/05/21 11:16:33;;;;;;;14.40;2.50;;;16.20;60.10;;;;;;4877225;29;20096;-77
2021/05/21 11:19:31;;;;;;;;;;;;;;;;;;;;;
2021/05/21 11:22:16;;;;;;;11.35;2.40;;;16.30;61.30;;;;;;4896355;29;20024;-78
2021/05/21 11:25:05;;;;;;;15.05;3.50;;;16.60;61.40;;;;;;4922012;28;20058;-77
2021/05/21 11:36:33;;;;;;;14.95;2.47;;;18.00;55.40;;;;;;4933720;29;20032;-77
2021/05/21 11:38:59;;;;;;;10.27;2.40;;;17.60;53.70;;;;;;4918561;29;20079;-77
2021/05/21 11:42:04;;;;;;;17.02;3.47;;;17.10;57.80;;;;;;4934348;28;20122;-80
2021/05/21 11:44:44;;;;;;;11.38;2.20;;;16.60;60.70;;;;;;4954123;29;20083;-80
2021/05/21 11:47:12;;;;;;;11.43;2.72;;;15.80;66.10;;;;;;4954062;29;20030;-79
2021/05/21 11:55:47;;;;;;;8.52;2.25;;;14.00;76.00;;;;;;4933330;29;20034;-78
2021/05/21 11:58:26;;;;;;;11.00;2.28;;;13.80;77.60;;;;;;4935703;29;20482;-79
2021/05/21 12:00:58;;;;;;;13.30;3.17;;;13.80;77.60;;;;;;4922393;29;20558;-79
2021/05/21 12:03:57;;;;;;;13.68;2.85;;;14.00;77.50;;;;;;4921532;29;20024;-79
2021/05/21 12:09:25;;;;;;;11.05;2.80;;;14.80;75.10;;;;;;4941211;29;20090;-79
2021/05/21 12:12:25;;;;;;;10.25;2.25;;;15.10;73.20;;;;;;4921975;29;20081;-78
2021/05/21 12:18:17;;;;;;;11.55;2.65;;;15.80;71.60;;;;;;4945002;28;20063;-78
2021/05/21 12:21:11;;;;;;;7.13;1.80;;;16.20;68.40;;;;;;4978527;29;20027;-76
2021/05/21 12:24:16;;;;;;;17.10;3.08;;;16.40;69.20;;;;;;4961697;29;20031;-79
2021/05/21 12:26:43;;;;;;;11.50;3.10;;;16.80;66.60;;;;;;4978803;28;20027;-78
2021/05/21 12:29:11;;;;;;;14.95;2.95;;;17.00;65.10;;;;;;4971831;29;20011;-78
2021/05/21 12:31:57;;;;;;;11.90;2.28;;;17.20;64.70;;;;;;4978274;28;20055;-78
2021/05/21 12:34:43;;;;;;;13.38;3.35;;;17.50;62.40;;;;;;4965388;28;20028;-78
2021/05/21 12:37:09;;;;;;;10.43;1.95;;;17.70;62.20;;;;;;4957549;29;20078;-78
2021/05/21 12:39:38;;;;;;;16.15;2.55;;;17.80;61.30;;;;;;4957870;28;20388;-77
2021/05/21 12:42:25;;;;;;;12.15;2.10;;;17.60;61.30;;;;;;4959708;28;20035;-79
2021/05/21 12:45:10;;;;;;;12.65;2.55;;;17.20;62.20;;;;;;4948147;29;20039;-78
2021/05/21 12:47:44;;;;;;;10.45;2.15;;;16.90;61.20;;;;;;4956198;29;20509;-77
2021/05/21 12:50:12;;;;;;;14.77;2.60;;;16.70;61.20;;;;;;4957319;28;20019;-78
2021/05/21 12:52:58;;;;;;;14.45;2.90;;;16.70;63.60;;;;;;4957525;28;20031;-77
2021/05/21 12:55:42;;;;;;;9.82;2.10;;;16.50;63.80;;;;;;4959435;28;20027;-77
2021/05/21 12:58:42;;;;;;;14.57;2.38;;;16.40;63.60;;;;;;4959303;29;20122;-78
2021/05/21 13:08:16;;;;;;;8.10;2.35;;;15.70;64.00;;;;;;4956160;29;20201;-76
2021/05/21 13:10:43;;;;;;;9.45;2.45;;;15.60;67.50;;;;;;4919341;29;20124;-76
2021/05/21 13:13:27;;;;;;;14.93;2.63;;;15.50;64.90;;;;;;4918662;29;20568;-77
2021/05/21 13:16:14;;;;;;;15.57;2.53;;;15.50;65.20;;;;;;4945407;28;20031;-77
2021/05/21 13:18:40;;;;;;;15.20;2.90;;;15.40;65.50;;;;;;4948241;28;20051;-80
2021/05/21 13:21:28;;;;;;;14.57;2.90;;;15.20;68.40;;;;;;4962541;29;20115;-79
2021/05/21 13:24:09;;;;;;;12.70;2.22;;;15.00;66.60;;;;;;4957071;29;20063;-79
2021/05/21 13:26:50;;;;;;;17.17;2.47;;;14.80;66.90;;;;;;4957221;28;20024;-78
2021/05/21 13:32:25;;;;;;;12.00;2.10;;;14.60;69.90;;;;;;4958647;29;20041;-80
2021/05/21 13:34:55;;;;;;;11.00;2.05;;;14.80;69.60;;;;;;4956667;29;20059;-78
2021/05/21 13:37:21;;;;;;;11.95;2.30;;;14.80;69.70;;;;;;4957968;29;20472;-78
2021/05/21 13:40:20;;;;;;;15.60;3.65;;;14.80;69.80;;;;;;4956802;28;20035;-79
2021/05/21 13:43:06;;;;;;;10.48;2.58;;;15.10;68.70;;;;;;4945641;28;20090;-78
2021/05/21 13:45:32;;;;;;;9.40;2.03;;;15.50;67.90;;;;;;4945402;29;20043;-77
2021/05/21 13:47:57;;;;;;;14.55;3.20;;;15.90;67.10;;;;;;4957326;28;20058;-79
2021/05/21 13:50:40;;;;;;;13.25;3.15;;;16.30;65.60;;;;;;4956623;29;20058;-79
2021/05/21 13:53:06;;;;;;;10.55;2.92;;;16.60;62.50;;;;;;4957906;29;20494;-77
2021/05/21 13:55:33;;;;;;;15.15;2.65;;;16.90;61.90;;;;;;4960902;28;20026;-78
2021/05/21 13:57:59;;;;;;;15.60;2.80;;;16.90;61.70;;;;;;4963388;28;20038;-79
2021/05/21 14:07:04;;;;;;;10.55;2.35;;;16.40;61.60;;;;;;4971685;28;20113;-79
2021/05/21 14:09:30;;;;;;;17.70;2.38;;;16.20;62.60;;;;;;4956729;28;20039;-80
2021/05/21 14:11:56;;;;;;;15.82;3.35;;;16.20;62.50;;;;;;4967020;28;20037;-80
2021/05/21 14:14:22;;;;;;;8.88;2.47;;;16.10;64.60;;;;;;4982148;28;20027;-79
2021/05/21 14:16:51;;;;;;;9.38;1.98;;;16.30;64.80;;;;;;4978407;28;20003;-79
2021/05/21 14:19:16;;;;;;;8.65;2.15;;;16.50;64.00;;;;;;4962772;28;20026;-80
2021/05/21 14:22:10;;;;;;;9.98;1.80;;;16.80;63.40;;;;;;4974118;28;20106;-79
2021/05/21 14:24:35;;;;;;;11.05;1.80;;;17.20;61.80;;;;;;4980205;28;20038;-78
2021/05/21 14:27:22;;;;;;;7.20;1.33;;;17.50;60.40;;;;;;4976416;28;20050;-80
2021/05/21 14:29:47;;;;;;;11.55;2.05;;;17.70;60.20;;;;;;4981098;28;20086;-79
2021/05/21 14:32:15;;;;;;;8.02;1.67;;;17.80;59.10;;;;;;4988441;28;20054;-78
2021/05/21 14:34:45;;;;;;;6.25;1.48;;;17.90;59.80;;;;;;4961558;28;20023;-76
2021/05/21 14:37:28;;;;;;;;;;;;;;;;;;;;;
2021/05/21 14:39:54;;;;;;;6.07;1.65;;;18.00;57.70;;;;;;4976137;28;20027;-78
2021/05/21 14:42:38;;;;;;;8.32;1.80;;;18.20;57.50;;;;;;4959192;28;20113;-77
2021/05/21 14:45:25;;;;;;;;;;;;;;;;;;;;;
2021/05/21 14:48:14;;;;;;;6.63;1.40;;;18.30;58.10;;;;;;4976487;28;20027;-78
2021/05/21 14:50:44;;;;;;;6.88;1.63;;;18.40;57.50;;;;;;4939772;28;20109;-78
2021/05/21 14:56:17;;;;;;;5.47;1.50;;;18.40;56.50;;;;;;4975367;28;20026;-78
2021/05/21 14:59:23;;;;;;;10.40;1.35;;;18.10;55.80;;;;;;4958346;28;20034;-77
2021/05/21 15:01:36;;;;;;;9.85;2.00;;;17.90;56.90;;;;;;4970497;28;20058;-79
2021/05/21 15:07:14;;;;;;;7.63;1.80;;;17.40;58.40;;;;;;4959938;28;20379;-78